Terminal Aerodrome Forecast
Issued by NWS

Home | Current Version | Previous Version | Text Only | Print | Product List | Glossary Off
Versions: 1 2 3 4 5 6 7 8 9 10 11 12 13 14

000
FTUS43 KICT 180500
TAFSLN
TAF
KSLN 180520Z 1806/1906 01004KT P6SM BKN300
     FM182000 08004KT P6SM BKN300=

USA.gov is the U.S. government's official web portal to all federal, state and local government web resources and services.